Time,TemperatureF,DewpointF,PressureIn,WindDirection,WindDirectionDegrees,WindSpeedMPH,WindSpeedGustMPH,Humidity,HourlyPrecipIn,Conditions,Clouds,dailyrainin,SolarRadiationWatts/m^2,SoftwareType,DateUTC
2013-07-17 00:43:00,74.0,71.0,-100.00,NNE,14,0.0,0.0,89,0.00,,,-99.99,0.000000,,2013-07-17 04:43:00,
2013-07-17 00:53:00,74.0,71.0,-100.00,NNE,14,0.0,0.0,89,0.00,,,-99.99,0.000000,,2013-07-17 04:53:00,
2013-07-17 01:43:00,73.0,70.0,-100.00,NNE,23,0.0,0.0,91,0.00,,,-99.99,0.000000,,2013-07-17 05:43:00,
2013-07-17 01:52:00,73.0,70.0,-100.00,NNE,23,0.0,0.0,91,0.00,,,-99.99,0.000000,,2013-07-17 05:52:00,
2013-07-17 02:22:00,73.0,71.0,-100.00,NNE,20,1.0,3.0,92,0.00,,,-99.99,0.000000,,2013-07-17 06:22:00,
2013-07-17 02:32:00,73.0,71.0,-100.00,NNE,20,1.0,3.0,92,0.00,,,-99.99,0.000000,,2013-07-17 06:32:00,
2013-07-17 02:43:00,73.0,71.0,-100.00,NNE,20,1.0,3.0,92,0.00,,,-99.99,0.000000,,2013-07-17 06:43:00,
2013-07-17 02:52:00,73.0,71.0,-100.00,NNE,20,1.0,3.0,92,0.00,,,-99.99,0.000000,,2013-07-17 06:52:00,
2013-07-17 03:32:00,72.0,70.0,-100.00,North,5,0.0,2.0,92,0.00,,,-99.99,0.000000,,2013-07-17 07:32:00,
2013-07-17 03:42:00,72.0,70.0,-100.00,North,5,0.0,2.0,92,0.00,,,-99.99,0.000000,,2013-07-17 07:42:00,
2013-07-17 03:52:00,72.0,70.0,-100.00,North,5,0.0,2.0,92,0.00,,,-99.99,0.000000,,2013-07-17 07:52:00,
2013-07-17 04:22:00,73.0,71.0,-100.00,NNE,12,0.0,2.0,93,0.00,,,-99.99,0.000000,,2013-07-17 08:22:00,
2013-07-17 04:32:00,73.0,71.0,-100.00,NNE,12,0.0,2.0,93,0.00,,,-99.99,0.000000,,2013-07-17 08:32:00,
2013-07-17 04:43:00,73.0,71.0,-100.00,NNE,12,0.0,2.0,93,0.00,,,-99.99,0.000000,,2013-07-17 08:43:00,
2013-07-17 04:53:00,73.0,71.0,-100.00,NNE,12,0.0,2.0,93,0.00,,,-99.99,0.000000,,2013-07-17 08:53:00,
2013-07-17 05:22:00,72.0,70.0,-100.00,North,356,0.0,0.0,94,0.00,,,-99.99,0.000000,,2013-07-17 09:22:00,
2013-07-17 05:32:00,72.0,70.0,-100.00,North,356,0.0,0.0,94,0.00,,,-99.99,0.000000,,2013-07-17 09:32:00,
2013-07-17 05:43:00,72.0,70.0,-100.00,North,356,0.0,0.0,94,0.00,,,-99.99,0.000000,,2013-07-17 09:43:00,
2013-07-17 05:52:00,72.0,70.0,-100.00,North,356,0.0,0.0,94,0.00,,,-99.99,0.000000,,2013-07-17 09:52:00,
2013-07-17 06:22:00,74.0,72.0,-100.00,NW,308,0.0,4.0,95,0.00,,,-99.99,0.000000,,2013-07-17 10:22:00,
2013-07-17 06:32:00,74.0,72.0,-100.00,NW,308,0.0,4.0,95,0.00,,,-99.99,0.000000,,2013-07-17 10:32:00,
2013-07-17 06:43:00,74.0,72.0,-100.00,NW,308,0.0,4.0,95,0.00,,,-99.99,0.000000,,2013-07-17 10:43:00,
2013-07-17 06:52:00,74.0,72.0,-100.00,NW,308,0.0,4.0,95,0.00,,,-99.99,0.000000,,2013-07-17 10:52:00,
2013-07-17 07:22:00,73.0,71.0,-100.00,North,4,1.0,3.0,95,0.00,,,-99.99,4.000000,,2013-07-17 11:22:00,
2013-07-17 07:32:00,73.0,71.0,-100.00,North,4,1.0,3.0,95,0.00,,,-99.99,4.000000,,2013-07-17 11:32:00,
2013-07-17 07:42:00,73.0,71.0,-100.00,North,4,1.0,3.0,95,0.00,,,-99.99,4.000000,,2013-07-17 11:42:00,
2013-07-17 07:52:00,73.0,71.0,-100.00,North,4,1.0,3.0,95,0.00,,,-99.99,4.000000,,2013-07-17 11:52:00,
2013-07-17 08:22:00,76.0,74.0,-100.00,NNW,331,3.0,5.0,95,0.00,,,-99.99,56.000000,,2013-07-17 12:22:00,
2013-07-17 08:32:00,76.0,74.0,-100.00,NNW,331,3.0,5.0,95,0.00,,,-99.99,56.000000,,2013-07-17 12:32:00,
2013-07-17 08:42:00,76.0,74.0,-100.00,NNW,331,3.0,5.0,95,0.00,,,-99.99,56.000000,,2013-07-17 12:42:00,
2013-07-17 08:53:00,76.0,74.0,-100.00,NNW,331,3.0,5.0,95,0.00,,,-99.99,56.000000,,2013-07-17 12:53:00,
2013-07-17 09:32:00,79.0,77.0,-100.00,WNW,294,5.0,7.0,93,0.00,,,-99.99,225.000000,,2013-07-17 13:32:00,
2013-07-17 09:43:00,79.0,77.0,-100.00,WNW,294,5.0,7.0,93,0.00,,,-99.99,225.000000,,2013-07-17 13:43:00,
2013-07-17 09:52:00,79.0,77.0,-100.00,WNW,294,5.0,7.0,93,0.00,,,-99.99,225.000000,,2013-07-17 13:52:00,
2013-07-17 10:43:00,83.0,79.0,-100.00,NW,319,6.0,9.0,87,0.00,,,-99.99,436.000000,,2013-07-17 14:43:00,
2013-07-17 10:52:00,83.0,79.0,-100.00,NW,319,6.0,9.0,87,0.00,,,-99.99,436.000000,,2013-07-17 14:52:00,
2013-07-17 11:22:00,84.0,77.0,-100.00,NW,324,6.0,10.0,79,0.00,,,-99.99,785.000000,,2013-07-17 15:22:00,
2013-07-17 11:32:00,84.0,77.0,-100.00,NW,324,6.0,10.0,79,0.00,,,-99.99,785.000000,,2013-07-17 15:32:00,
2013-07-17 11:42:00,84.0,77.0,-100.00,NW,324,6.0,10.0,79,0.00,,,-99.99,785.000000,,2013-07-17 15:42:00,
2013-07-17 11:52:00,84.0,77.0,-100.00,NW,324,6.0,10.0,79,0.00,,,-99.99,785.000000,,2013-07-17 15:52:00,
2013-07-17 12:22:00,87.0,77.0,-100.00,North,11,4.0,11.0,72,0.00,,,-99.99,735.000000,,2013-07-17 16:22:00,
2013-07-17 12:33:00,87.0,77.0,-100.00,North,11,4.0,11.0,72,0.00,,,-99.99,735.000000,,2013-07-17 16:33:00,
2013-07-17 12:42:00,87.0,77.0,-100.00,North,11,4.0,11.0,72,0.00,,,-99.99,735.000000,,2013-07-17 16:42:00,
2013-07-17 12:52:00,87.0,77.0,-100.00,North,11,4.0,11.0,72,0.00,,,-99.99,735.000000,,2013-07-17 16:52:00,
2013-07-17 13:22:00,91.0,77.0,-100.00,SW,215,4.0,9.0,63,0.00,,,-99.99,971.000000,,2013-07-17 17:22:00,
2013-07-17 13:32:00,91.0,77.0,-100.00,SW,215,4.0,9.0,63,0.00,,,-99.99,971.000000,,2013-07-17 17:32:00,
2013-07-17 13:43:00,91.0,77.0,-100.00,SW,215,4.0,9.0,63,0.00,,,-99.99,971.000000,,2013-07-17 17:43:00,
2013-07-17 13:52:00,91.0,77.0,-100.00,SW,215,4.0,9.0,63,0.00,,,-99.99,971.000000,,2013-07-17 17:52:00,
2013-07-17 14:22:00,92.0,77.0,-100.00,ESE,122,3.0,7.0,61,0.00,,,0.00,799.000000,,2013-07-17 18:22:00,
2013-07-17 14:32:00,92.0,77.0,-100.00,ESE,122,3.0,7.0,61,0.00,,,0.00,799.000000,,2013-07-17 18:32:00,
2013-07-17 14:43:00,92.0,77.0,-100.00,ESE,122,3.0,7.0,61,0.00,,,0.00,799.000000,,2013-07-17 18:43:00,
2013-07-17 14:52:00,92.0,77.0,-100.00,ESE,122,3.0,7.0,61,0.00,,,0.00,799.000000,,2013-07-17 18:52:00,
2013-07-17 15:22:00,93.0,74.0,-100.00,West,279,3.0,6.0,55,0.00,,,0.00,724.000000,,2013-07-17 19:22:00,
2013-07-17 15:32:00,93.0,74.0,-100.00,West,279,3.0,6.0,55,0.00,,,0.00,724.000000,,2013-07-17 19:32:00,
2013-07-17 15:43:00,93.0,74.0,-100.00,West,279,3.0,6.0,55,0.00,,,0.00,724.000000,,2013-07-17 19:43:00,
2013-07-17 15:53:00,93.0,74.0,-100.00,West,279,3.0,6.0,55,0.00,,,0.00,724.000000,,2013-07-17 19:53:00,
2013-07-17 16:43:00,93.0,77.0,-100.00,South,182,9.0,13.0,59,0.00,,,-99.99,634.000000,,2013-07-17 20:43:00,
2013-07-17 16:52:00,93.0,77.0,-100.00,South,182,9.0,13.0,59,0.00,,,-99.99,634.000000,,2013-07-17 20:52:00,
2013-07-17 17:42:00,87.0,73.0,-100.00,SSE,166,9.0,15.0,64,0.00,,,0.00,577.000000,,2013-07-17 21:42:00,
2013-07-17 17:52:00,87.0,73.0,-100.00,SSE,166,9.0,15.0,64,0.00,,,0.00,577.000000,,2013-07-17 21:52:00,
2013-07-17 18:22:00,86.0,75.0,-100.00,SSE,147,4.0,11.0,71,0.00,,,0.00,135.000000,,2013-07-17 22:22:00,
2013-07-17 18:32:00,86.0,75.0,-100.00,SSE,147,4.0,11.0,71,0.00,,,0.00,135.000000,,2013-07-17 22:32:00,
2013-07-17 18:43:00,86.0,75.0,-100.00,SSE,147,4.0,11.0,71,0.00,,,0.00,135.000000,,2013-07-17 22:43:00,
2013-07-17 18:53:00,86.0,75.0,-100.00,SSE,147,4.0,11.0,71,0.00,,,0.00,135.000000,,2013-07-17 22:53:00,
2013-07-17 19:22:00,85.0,75.0,-100.00,SE,146,4.0,10.0,72,0.00,,,0.00,141.000000,,2013-07-17 23:22:00,
2013-07-17 19:32:00,85.0,75.0,-100.00,SE,146,4.0,10.0,72,0.00,,,0.00,141.000000,,2013-07-17 23:32:00,
2013-07-17 19:43:00,85.0,75.0,-100.00,SE,146,4.0,10.0,72,0.00,,,0.00,141.000000,,2013-07-17 23:43:00,
2013-07-17 19:52:00,85.0,75.0,-100.00,SE,146,4.0,10.0,72,0.00,,,0.00,141.000000,,2013-07-17 23:52:00,
2013-07-17 20:22:00,79.0,71.0,-100.00,NNE,18,10.0,20.0,76,0.00,,,0.00,28.000000,,2013-07-18 00:22:00,
2013-07-17 20:33:00,79.0,71.0,-100.00,NNE,18,10.0,20.0,76,0.00,,,0.00,28.000000,,2013-07-18 00:33:00,
2013-07-17 20:43:00,79.0,71.0,-100.00,NNE,18,10.0,20.0,76,0.00,,,0.00,28.000000,,2013-07-18 00:43:00,
2013-07-17 20:52:00,79.0,71.0,-100.00,NNE,18,10.0,20.0,76,0.00,,,0.00,28.000000,,2013-07-18 00:52:00,
2013-07-17 21:32:00,76.0,70.0,-100.00,SSE,157,2.0,14.0,81,0.00,,,0.00,5.000000,,2013-07-18 01:32:00,
2013-07-17 21:43:00,76.0,70.0,-100.00,SSE,157,2.0,14.0,81,0.00,,,0.00,5.000000,,2013-07-18 01:43:00,
2013-07-17 21:53:00,76.0,70.0,-100.00,SSE,157,2.0,14.0,81,0.00,,,0.00,5.000000,,2013-07-18 01:53:00,
2013-07-17 22:22:00,75.0,70.0,-100.00,East,94,2.0,5.0,85,0.00,,,0.00,0.000000,,2013-07-18 02:22:00,
2013-07-17 22:32:00,75.0,70.0,-100.00,East,94,2.0,5.0,85,0.00,,,0.00,0.000000,,2013-07-18 02:32:00,
2013-07-17 22:43:00,75.0,70.0,-100.00,East,94,2.0,5.0,85,0.00,,,0.00,0.000000,,2013-07-18 02:43:00,
2013-07-17 22:52:00,75.0,70.0,-100.00,East,94,2.0,5.0,85,0.00,,,0.00,0.000000,,2013-07-18 02:52:00,
2013-07-17 23:43:00,75.0,71.0,-100.00,ENE,65,2.0,4.0,87,0.00,,,0.00,0.000000,,2013-07-18 03:43:00,
2013-07-17 23:52:00,75.0,71.0,-100.00,ENE,65,2.0,4.0,87,0.00,,,0.00,0.000000,,2013-07-18 03:52:00,